createdAt,value
2019-02-26T00:02:21.527Z,4.70
2019-02-26T00:04:53.516Z,5.40
2019-02-26T00:07:24.909Z,5.97
2019-02-26T00:09:53.564Z,5.27
2019-02-26T00:12:24.200Z,5.87
2019-02-26T00:14:55.028Z,5.90
2019-02-26T00:17:24.157Z,4.60
2019-02-26T00:19:53.152Z,6.00
2019-02-26T00:22:22.113Z,5.40
2019-02-26T00:24:51.334Z,5.30
2019-02-26T00:27:20.079Z,5.43
2019-02-26T00:29:50.825Z,6.10
2019-02-26T00:32:19.705Z,4.93
2019-02-26T00:34:48.450Z,5.17
2019-02-26T00:37:17.633Z,5.70
2019-02-26T00:39:47.416Z,5.83
2019-02-26T00:42:19.488Z,5.03
2019-02-26T00:44:51.313Z,5.90
2019-02-26T00:47:19.052Z,6.00
2019-02-26T00:49:48.599Z,5.77
2019-02-26T00:52:18.548Z,5.27
2019-02-26T00:54:47.497Z,5.20
2019-02-26T00:57:16.736Z,5.80
2019-02-26T00:59:46.407Z,5.50
2019-02-26T01:02:16.649Z,5.40
2019-02-26T01:04:46.722Z,5.20
2019-02-26T01:07:16.672Z,5.40
2019-02-26T01:09:45.615Z,5.60
2019-02-26T01:12:16.607Z,6.07
2019-02-26T01:14:46.365Z,5.73
2019-02-26T01:17:18.837Z,5.63
2019-02-26T01:19:47.693Z,5.17
2019-02-26T01:22:16.880Z,5.50
2019-02-26T01:24:47.620Z,5.67
2019-02-26T01:27:16.759Z,6.07
2019-02-26T01:29:47.334Z,5.40
2019-02-26T01:32:18.000Z,5.47
2019-02-26T01:34:49.460Z,6.00
2019-02-26T01:37:18.025Z,6.40
2019-02-26T01:39:49.587Z,5.40
2019-02-26T01:42:22.375Z,6.00
2019-02-26T01:44:48.596Z,6.87
2019-02-26T01:47:19.508Z,5.83
2019-02-26T01:49:49.408Z,5.33
2019-02-26T01:52:19.425Z,6.20
2019-02-26T01:54:48.601Z,6.30
2019-02-26T01:57:17.801Z,6.20
2019-02-26T01:59:49.910Z,5.83
2019-02-26T02:02:20.085Z,6.67
2019-02-26T02:04:47.921Z,6.87
2019-02-26T02:07:16.694Z,6.00
2019-02-26T02:09:48.683Z,6.50
2019-02-26T02:12:16.787Z,5.80
2019-02-26T02:14:45.770Z,6.93
2019-02-26T02:17:14.733Z,5.87
2019-02-26T02:19:43.997Z,7.10
2019-02-26T02:22:14.628Z,6.83
2019-02-26T02:24:46.168Z,6.93
2019-02-26T02:27:19.527Z,6.47
2019-02-26T02:29:48.254Z,5.63
2019-02-26T02:32:16.957Z,5.87
2019-02-26T02:34:45.947Z,6.03
2019-02-26T02:37:17.360Z,7.40
2019-02-26T02:39:45.630Z,6.27
2019-02-26T02:42:17.110Z,7.03
2019-02-26T02:44:46.907Z,6.77
2019-02-26T02:47:15.937Z,6.80
2019-02-26T02:49:44.645Z,6.50
2019-02-26T02:52:13.638Z,6.47
2019-02-26T02:54:43.964Z,6.77
2019-02-26T02:57:13.032Z,6.40
2019-02-26T02:59:42.367Z,6.97
2019-02-26T03:02:12.683Z,6.17
2019-02-26T03:04:41.869Z,6.50
2019-02-26T03:07:10.677Z,6.80
2019-02-26T03:09:40.719Z,6.00
2019-02-26T03:12:10.086Z,6.47
2019-02-26T03:14:41.755Z,6.67
2019-02-26T03:17:11.164Z,6.60
2019-02-26T03:19:43.588Z,6.57
2019-02-26T03:22:12.793Z,7.13
2019-02-26T03:24:42.242Z,7.13
2019-02-26T03:27:11.222Z,6.30
2019-02-26T03:29:40.206Z,6.33
2019-02-26T03:32:08.914Z,6.13
2019-02-26T03:34:37.899Z,7.67
2019-02-26T03:37:08.212Z,6.77
2019-02-26T03:39:37.024Z,6.30
2019-02-26T03:42:05.863Z,7.57
2019-02-26T03:44:34.595Z,7.20
2019-02-26T03:47:22.561Z,7.30
2019-02-26T03:49:51.280Z,6.80
2019-02-26T03:52:20.334Z,7.60
2019-02-26T03:54:50.688Z,6.30
2019-02-26T03:57:22.059Z,5.93
2019-02-26T03:59:50.373Z,6.57
2019-02-26T04:02:23.317Z,7.00
2019-02-26T04:04:53.914Z,7.13
2019-02-26T04:07:22.828Z,7.23
2019-02-26T04:09:53.180Z,7.63
2019-02-26T04:12:22.884Z,6.70
2019-02-26T04:14:51.922Z,8.00
2019-02-26T04:17:23.219Z,8.70
2019-02-26T04:19:51.071Z,7.23
2019-02-26T04:22:30.805Z,8.03
2019-02-26T04:25:31.350Z,6.83
2019-02-26T04:28:19.090Z,7.57
2019-02-26T04:31:38.650Z,6.63
2019-02-26T04:34:34.525Z,6.87
2019-02-26T04:37:20.457Z,6.00
2019-02-26T04:40:23.858Z,6.83
2019-02-26T04:43:34.138Z,7.00
2019-02-26T04:47:00.378Z,6.97
2019-02-26T04:49:33.346Z,7.27
2019-02-26T04:52:02.949Z,7.50
2019-02-26T04:54:33.647Z,8.17
2019-02-26T04:57:02.646Z,7.30
2019-02-26T04:59:32.409Z,7.70
2019-02-26T05:02:02.090Z,7.40
2019-02-26T05:04:33.968Z,8.20
2019-02-26T05:07:04.419Z,7.87
2019-02-26T05:09:33.211Z,7.47
2019-02-26T05:12:02.471Z,8.00
2019-02-26T05:14:31.193Z,7.23
2019-02-26T05:17:00.191Z,8.10
2019-02-26T05:19:28.894Z,8.73
2019-02-26T05:21:59.394Z,7.33
2019-02-26T05:24:29.274Z,8.00
2019-02-26T05:26:58.814Z,8.43
2019-02-26T05:29:27.800Z,7.97
2019-02-26T05:31:58.875Z,7.97
2019-02-26T05:34:27.670Z,8.37
2019-02-26T05:36:56.382Z,8.57
2019-02-26T05:39:26.766Z,8.33
2019-02-26T05:41:58.103Z,8.77
2019-02-26T05:44:26.086Z,8.30
2019-02-26T05:46:56.672Z,8.23
2019-02-26T05:49:25.505Z,8.60
2019-02-26T05:51:56.717Z,8.93
2019-02-26T05:54:24.881Z,8.17
2019-02-26T05:56:53.867Z,8.60
2019-02-26T05:59:22.600Z,8.13
2019-02-26T06:01:53.192Z,8.20
2019-02-26T06:04:22.016Z,8.10
2019-02-26T06:06:56.402Z,8.40
2019-02-26T06:09:26.111Z,9.00
2019-02-26T06:11:55.452Z,9.20
2019-02-26T06:14:25.538Z,10.00
2019-02-26T06:16:55.889Z,8.80
2019-02-26T06:19:44.972Z,9.30
2019-02-26T06:22:17.315Z,8.80
2019-02-26T06:24:44.957Z,8.97
2019-02-26T06:27:15.990Z,9.13
2019-02-26T06:29:44.725Z,9.10
2019-02-26T06:32:14.913Z,9.00
2019-02-26T06:34:43.641Z,9.50
2019-02-26T06:37:18.013Z,10.67
2019-02-26T06:39:50.535Z,10.10
2019-02-26T06:42:17.185Z,9.00
2019-02-26T06:44:48.869Z,10.03
2019-02-26T06:47:16.939Z,10.67
2019-02-26T06:49:46.258Z,10.03
2019-02-26T06:52:17.973Z,9.70
2019-02-26T06:54:50.774Z,10.50
2019-02-26T06:57:17.468Z,10.40
2019-02-26T06:59:46.201Z,8.40
2019-02-26T07:02:14.910Z,8.47
2019-02-26T07:04:43.676Z,9.50
2019-02-26T07:07:14.403Z,10.00
2019-02-26T07:09:43.900Z,9.93
2019-02-26T07:12:14.568Z,9.00
2019-02-26T07:14:43.873Z,9.90
2019-02-26T07:17:12.600Z,10.27
2019-02-26T07:19:41.350Z,9.90
2019-02-26T07:22:11.596Z,11.70
2019-02-26T07:24:41.787Z,10.00
2019-02-26T07:27:12.116Z,11.03
2019-02-26T07:29:42.880Z,10.87
2019-02-26T07:32:14.591Z,10.50
2019-02-26T07:34:45.274Z,10.37
2019-02-26T07:37:15.814Z,10.70
2019-02-26T07:39:46.836Z,10.07
2019-02-26T07:42:16.932Z,9.57
2019-02-26T07:44:45.889Z,10.20
2019-02-26T07:47:15.101Z,10.07
2019-02-26T07:49:44.059Z,9.60
2019-02-26T07:52:12.865Z,8.87
2019-02-26T07:54:42.779Z,9.90
2019-02-26T07:57:12.311Z,9.33
2019-02-26T07:59:42.660Z,10.30
2019-02-26T08:02:13.476Z,11.27
2019-02-26T08:04:43.592Z,10.70
2019-02-26T08:07:12.794Z,11.10
2019-02-26T08:09:41.810Z,10.77
2019-02-26T08:12:11.362Z,10.20
2019-02-26T08:14:42.752Z,8.13
2019-02-26T08:17:11.556Z,10.13
2019-02-26T08:19:43.756Z,10.47
2019-02-26T08:22:10.988Z,10.70
2019-02-26T08:24:39.953Z,11.87
2019-02-26T08:27:11.072Z,12.20
2019-02-26T08:29:39.523Z,10.70
2019-02-26T08:32:08.794Z,10.60
2019-02-26T08:34:39.974Z,10.67
2019-02-26T08:37:09.500Z,9.87
2019-02-26T08:39:41.462Z,9.63
2019-02-26T08:42:12.319Z,10.07
2019-02-26T08:44:41.673Z,9.80
2019-02-26T08:47:13.513Z,10.50
2019-02-26T08:50:01.760Z,10.50
2019-02-26T08:52:30.228Z,9.47
2019-02-26T08:54:59.058Z,8.87
2019-02-26T08:57:27.863Z,10.87
2019-02-26T08:59:57.305Z,9.57
2019-02-26T09:02:26.488Z,10.50
2019-02-26T09:05:14.702Z,10.63
2019-02-26T09:07:45.575Z,9.87
2019-02-26T09:10:17.551Z,10.40
2019-02-26T09:12:48.709Z,10.40
2019-02-26T09:15:17.391Z,10.90
2019-02-26T09:17:46.650Z,10.20
2019-02-26T09:20:15.962Z,11.10
2019-02-26T09:22:47.864Z,10.73
2019-02-26T09:25:16.145Z,11.50
2019-02-26T09:27:44.939Z,13.13
2019-02-26T09:30:16.213Z,12.87
2019-02-26T09:32:45.166Z,13.23
2019-02-26T09:35:16.848Z,12.73
2019-02-26T09:37:47.343Z,12.03
2019-02-26T09:40:17.113Z,13.23
2019-02-26T09:42:51.198Z,13.07
2019-02-26T09:45:19.949Z,12.90
2019-02-26T09:47:49.712Z,14.80
2019-02-26T09:50:20.763Z,14.50
2019-02-26T09:52:50.841Z,14.80
2019-02-26T09:55:20.137Z,14.70
2019-02-26T09:57:48.933Z,14.73
2019-02-26T10:00:20.320Z,14.23
2019-02-26T10:02:49.491Z,13.73
2019-02-26T10:05:19.510Z,14.00
2019-02-26T10:07:48.358Z,15.77
2019-02-26T10:10:19.241Z,15.07
2019-02-26T10:12:48.077Z,13.97
2019-02-26T10:15:17.242Z,13.30
2019-02-26T10:17:45.933Z,14.70
2019-02-26T10:20:17.740Z,15.63
2019-02-26T10:22:47.631Z,16.00
2019-02-26T10:25:16.466Z,14.60
2019-02-26T10:27:47.798Z,15.47
2019-02-26T10:30:17.257Z,15.10
2019-02-26T10:32:47.001Z,15.20
2019-02-26T10:35:19.488Z,14.50
2019-02-26T10:37:50.604Z,15.37
2019-02-26T10:40:19.581Z,15.80
2019-02-26T10:42:48.621Z,16.33
2019-02-26T10:45:19.863Z,18.07
2019-02-26T10:47:50.822Z,16.53
2019-02-26T10:50:22.356Z,17.60
2019-02-26T10:52:52.585Z,18.23
2019-02-26T10:55:24.297Z,17.90
2019-02-26T10:57:52.538Z,18.97
2019-02-26T11:00:25.928Z,17.23
2019-02-26T11:02:54.836Z,17.17
2019-02-26T11:05:26.281Z,16.93
2019-02-26T11:07:57.902Z,17.00
2019-02-26T11:10:25.263Z,17.07
2019-02-26T11:12:56.255Z,15.70
2019-02-26T11:15:26.813Z,16.53
2019-02-26T11:17:55.900Z,16.80
2019-02-26T11:20:27.838Z,16.13
2019-02-26T11:22:55.597Z,17.20
2019-02-26T11:25:26.915Z,17.87
2019-02-26T11:27:55.053Z,17.40
2019-02-26T11:30:27.189Z,17.80
2019-02-26T11:32:58.622Z,16.17
2019-02-26T11:35:27.438Z,17.20
2019-02-26T11:37:57.991Z,16.30
2019-02-26T11:40:29.576Z,17.97
2019-02-26T11:43:00.135Z,16.40
2019-02-26T11:45:28.828Z,19.47
2019-02-26T11:48:00.412Z,17.33
2019-02-26T11:50:28.576Z,15.80
2019-02-26T11:52:57.555Z,16.47
2019-02-26T11:55:31.997Z,16.30
2019-02-26T11:58:00.586Z,15.17
2019-02-26T12:00:50.783Z,15.57
2019-02-26T12:03:27.223Z,17.90
2019-02-26T12:06:12.876Z,15.80
2019-02-26T12:08:43.162Z,15.70
2019-02-26T12:11:17.468Z,15.17
2019-02-26T12:13:44.582Z,14.37
2019-02-26T12:16:13.362Z,16.60
2019-02-26T12:18:44.415Z,14.53
2019-02-26T12:21:12.905Z,16.53
2019-02-26T12:23:44.136Z,15.50
2019-02-26T12:26:12.370Z,15.13
2019-02-26T12:28:41.086Z,14.03
2019-02-26T12:31:12.812Z,15.17
2019-02-26T12:33:40.845Z,13.63
2019-02-26T12:36:10.226Z,13.30
2019-02-26T12:38:39.782Z,13.90
2019-02-26T12:41:11.588Z,11.50
2019-02-26T12:43:42.586Z,11.80
2019-02-26T12:46:09.945Z,13.90
2019-02-26T12:51:12.633Z,11.80
2019-02-26T12:53:49.995Z,10.77
2019-02-26T12:56:20.582Z,11.67
2019-02-26T12:58:53.944Z,10.03
2019-02-26T13:01:20.926Z,12.27
2019-02-26T13:03:54.005Z,11.73
2019-02-26T13:06:22.620Z,13.07
2019-02-26T13:08:50.899Z,12.97
2019-02-26T13:11:21.128Z,12.37
2019-02-26T13:13:53.315Z,12.77
2019-02-26T13:16:21.823Z,14.03
2019-02-26T13:18:52.595Z,12.53
2019-02-26T13:21:21.841Z,11.60
2019-02-26T13:23:51.078Z,11.10
2019-02-26T13:26:22.410Z,11.30
2019-02-26T13:28:52.853Z,9.87
2019-02-26T13:31:22.487Z,10.60
2019-02-26T13:33:52.757Z,11.67
2019-02-26T13:36:23.378Z,10.73
2019-02-26T13:38:52.221Z,11.40
2019-02-26T13:41:29.524Z,11.23
2019-02-26T13:43:52.270Z,12.77
2019-02-26T13:46:20.993Z,12.27
2019-02-26T13:48:50.298Z,12.30
2019-02-26T13:51:19.396Z,12.47
2019-02-26T13:53:48.369Z,11.60
2019-02-26T13:56:19.683Z,12.50
2019-02-26T13:58:48.765Z,12.23
2019-02-26T14:01:17.556Z,16.20
2019-02-26T14:03:46.534Z,14.70
2019-02-26T14:06:15.802Z,15.80
2019-02-26T14:08:44.913Z,14.47
2019-02-26T14:11:13.894Z,13.60
2019-02-26T14:13:43.227Z,15.10
2019-02-26T14:16:12.591Z,15.27
2019-02-26T14:18:41.416Z,14.53
2019-02-26T14:21:10.411Z,13.67
2019-02-26T14:23:39.392Z,15.40
2019-02-26T14:26:08.179Z,14.60
2019-02-26T14:28:36.949Z,15.13
2019-02-26T14:31:07.048Z,15.07
2019-02-26T14:33:36.160Z,13.70
2019-02-26T14:36:05.050Z,14.90
2019-02-26T14:38:35.085Z,13.30
2019-02-26T14:41:05.331Z,14.53
2019-02-26T14:43:36.243Z,13.77
2019-02-26T14:46:05.346Z,14.20
2019-02-26T14:48:36.510Z,13.90
2019-02-26T14:51:05.408Z,13.53
2019-02-26T14:53:34.700Z,13.23
2019-02-26T14:56:03.812Z,13.90
2019-02-26T14:58:32.641Z,13.90
2019-02-26T15:01:01.673Z,13.97
2019-02-26T15:03:30.696Z,13.30
2019-02-26T15:06:00.027Z,12.90
2019-02-26T15:08:28.959Z,13.00
2019-02-26T15:10:58.016Z,14.67
2019-02-26T15:13:26.915Z,11.83
2019-02-26T15:15:55.825Z,12.37
2019-02-26T15:18:24.638Z,13.90
2019-02-26T15:20:54.007Z,12.20
2019-02-26T15:23:23.188Z,13.00
2019-02-26T15:25:51.997Z,12.20
2019-02-26T15:28:20.822Z,13.53
2019-02-26T15:30:49.855Z,12.50
2019-02-26T15:33:18.594Z,12.47
2019-02-26T15:35:47.828Z,13.50
2019-02-26T15:38:16.592Z,12.80
2019-02-26T15:40:45.521Z,12.97
2019-02-26T15:43:14.322Z,13.30
2019-02-26T15:45:51.570Z,13.10
2019-02-26T15:48:13.725Z,13.93
2019-02-26T15:50:42.583Z,13.27
2019-02-26T15:53:11.390Z,13.10
2019-02-26T15:55:40.494Z,12.87
2019-02-26T15:58:09.240Z,14.60
2019-02-26T16:00:38.525Z,13.70
2019-02-26T16:03:07.617Z,13.17
2019-02-26T16:05:36.710Z,13.37
2019-02-26T16:08:06.428Z,13.50
2019-02-26T16:10:35.371Z,15.57
2019-02-26T16:13:04.535Z,16.40
2019-02-26T16:15:34.669Z,15.83
2019-02-26T16:18:03.665Z,15.27
2019-02-26T16:20:32.644Z,13.97
2019-02-26T16:23:01.368Z,14.67
2019-02-26T16:25:30.345Z,13.60
2019-02-26T16:27:59.055Z,15.47
2019-02-26T16:30:28.116Z,13.67
2019-02-26T16:32:57.278Z,12.00
2019-02-26T16:35:26.189Z,16.97
2019-02-26T16:37:55.188Z,14.17
2019-02-26T16:40:23.982Z,13.17
2019-02-26T16:42:53.044Z,12.50
2019-02-26T16:45:22.325Z,13.13
2019-02-26T16:48:10.316Z,12.57
2019-02-26T16:50:39.433Z,11.73
2019-02-26T16:53:08.306Z,12.60
2019-02-26T16:55:39.436Z,11.70
2019-02-26T16:58:12.002Z,11.53
2019-02-26T17:00:41.348Z,12.00
2019-02-26T17:03:11.950Z,11.20
2019-02-26T17:05:41.052Z,11.60
2019-02-26T17:08:09.824Z,12.87
2019-02-26T17:10:38.567Z,14.10
2019-02-26T17:13:07.300Z,12.47
2019-02-26T17:15:36.044Z,11.17
2019-02-26T17:18:09.208Z,13.20
2019-02-26T17:20:35.611Z,11.90
2019-02-26T17:23:23.581Z,10.70
2019-02-26T17:25:54.277Z,11.33
2019-02-26T17:28:23.097Z,11.87
2019-02-26T17:30:51.837Z,12.93
2019-02-26T17:33:21.118Z,10.63
2019-02-26T17:35:50.358Z,12.20
2019-02-26T17:38:19.329Z,11.93
2019-02-26T17:40:48.069Z,12.37
2019-02-26T17:43:16.813Z,12.07
2019-02-26T17:45:45.785Z,10.70
2019-02-26T17:48:14.780Z,11.20
2019-02-26T17:50:46.032Z,10.20
2019-02-26T17:53:13.957Z,10.80
2019-02-26T17:55:42.712Z,10.70
2019-02-26T17:58:11.449Z,10.10
2019-02-26T18:00:42.683Z,10.93
2019-02-26T18:03:11.598Z,10.30
2019-02-26T18:05:50.606Z,9.77
2019-02-26T18:08:11.034Z,9.93
2019-02-26T18:10:40.119Z,11.37
2019-02-26T18:13:09.121Z,11.70
2019-02-26T18:15:37.854Z,11.20
2019-02-26T18:18:06.567Z,10.20
2019-02-26T18:20:35.354Z,10.00
2019-02-26T18:23:04.138Z,10.07
2019-02-26T18:25:33.213Z,9.63
2019-02-26T18:28:01.956Z,10.00
2019-02-26T18:30:30.910Z,10.83
2019-02-26T18:33:00.012Z,12.80
2019-02-26T18:35:28.779Z,11.70
2019-02-26T18:37:58.026Z,12.70
2019-02-26T18:40:28.312Z,11.83
2019-02-26T18:42:57.936Z,11.80
2019-02-26T18:45:27.925Z,11.60
2019-02-26T18:47:57.504Z,11.67
2019-02-26T18:50:28.535Z,12.20
2019-02-26T18:52:58.157Z,12.17
2019-02-26T18:55:28.397Z,11.43
2019-02-26T18:57:58.044Z,10.87
2019-02-26T19:00:29.166Z,11.53
2019-02-26T19:02:57.970Z,11.27
2019-02-26T19:05:26.850Z,10.70
2019-02-26T19:07:56.327Z,11.00
2019-02-26T19:10:26.001Z,11.30
2019-02-26T19:12:55.456Z,10.10
2019-02-26T19:15:24.862Z,11.27
2019-02-26T19:17:54.459Z,12.70
2019-02-26T19:20:26.043Z,11.40
2019-02-26T19:22:58.864Z,10.90
2019-02-26T19:25:28.342Z,11.90
2019-02-26T19:27:57.704Z,12.27
2019-02-26T19:30:26.799Z,10.33
2019-02-26T19:32:56.130Z,11.77
2019-02-26T19:35:25.107Z,12.03
2019-02-26T19:37:55.974Z,12.17
2019-02-26T19:40:27.855Z,12.60
2019-02-26T19:42:57.058Z,12.10
2019-02-26T19:45:26.033Z,12.50
2019-02-26T19:47:57.716Z,12.30
2019-02-26T19:50:26.522Z,14.90
2019-02-26T19:52:57.183Z,16.27
2019-02-26T19:55:28.368Z,16.07
2019-02-26T19:58:02.894Z,14.67
2019-02-26T20:00:29.118Z,18.20
2019-02-26T20:02:58.070Z,17.67
2019-02-26T20:05:27.367Z,15.93
2019-02-26T20:07:56.580Z,14.93
2019-02-26T20:10:25.814Z,14.40
2019-02-26T20:12:54.883Z,15.90
2019-02-26T20:15:24.228Z,16.48
2019-02-26T20:17:53.249Z,14.40
2019-02-26T20:20:22.343Z,12.73
2019-02-26T20:22:52.093Z,12.17
2019-02-26T20:25:21.146Z,13.90
2019-02-26T20:27:49.877Z,13.03
2019-02-26T20:30:19.642Z,12.93
2019-02-26T20:32:48.771Z,13.60
2019-02-26T20:35:17.874Z,14.20
2019-02-26T20:37:47.038Z,12.47
2019-02-26T20:40:17.355Z,13.10
2019-02-26T20:42:46.485Z,11.90
2019-02-26T20:45:18.893Z,12.90
2019-02-26T20:47:48.244Z,14.00
2019-02-26T20:50:20.094Z,12.73
2019-02-26T20:52:48.122Z,12.40
2019-02-26T20:55:19.199Z,13.10
2019-02-26T20:57:49.370Z,11.53
2019-02-26T21:00:18.764Z,12.80
2019-02-26T21:02:51.068Z,12.40
2019-02-26T21:05:20.008Z,12.30
2019-02-26T21:07:50.493Z,11.80
2019-02-26T21:10:20.782Z,12.07
2019-02-26T21:12:50.062Z,12.07
2019-02-26T21:15:19.030Z,12.00
2019-02-26T21:17:48.109Z,11.40
2019-02-26T21:20:16.995Z,11.37
2019-02-26T21:22:46.016Z,11.93
2019-02-26T21:25:15.286Z,11.90
2019-02-26T21:27:44.659Z,10.60
2019-02-26T21:30:15.567Z,11.97
2019-02-26T21:32:45.305Z,11.43
2019-02-26T21:35:14.261Z,13.20
2019-02-26T21:37:43.075Z,12.10
2019-02-26T21:40:15.822Z,10.73
2019-02-26T21:42:47.043Z,11.30
2019-02-26T21:45:16.548Z,10.13
2019-02-26T21:47:45.437Z,11.23
2019-02-26T21:50:14.292Z,12.03
2019-02-26T21:52:43.412Z,10.73
2019-02-26T21:55:12.579Z,10.40
2019-02-26T21:57:41.811Z,10.63
2019-02-26T22:00:13.556Z,11.00
2019-02-26T22:02:44.345Z,10.13
2019-02-26T22:05:13.646Z,10.43
2019-02-26T22:07:42.829Z,10.97
2019-02-26T22:10:12.831Z,11.00
2019-02-26T22:12:41.637Z,9.10
2019-02-26T22:15:11.885Z,10.50
2019-02-26T22:17:41.185Z,10.70
2019-02-26T22:20:21.656Z,11.80
2019-02-26T22:22:42.555Z,10.00
2019-02-26T22:25:15.794Z,10.90
2019-02-26T22:27:42.371Z,10.73
2019-02-26T22:30:14.033Z,9.97
2019-02-26T22:32:43.409Z,9.23
2019-02-26T22:35:31.431Z,10.83
2019-02-26T22:38:00.401Z,10.10
2019-02-26T22:40:29.701Z,10.70
2019-02-26T22:42:58.521Z,10.00
2019-02-26T22:45:27.947Z,10.77
2019-02-26T22:47:57.289Z,11.20
2019-02-26T22:50:27.234Z,10.37
2019-02-26T22:52:56.592Z,10.30
2019-02-26T22:55:25.300Z,10.70
2019-02-26T22:57:54.142Z,10.80
2019-02-26T23:00:48.232Z,10.00
2019-02-26T23:03:14.963Z,10.17
2019-02-26T23:05:43.653Z,9.80
2019-02-26T23:08:12.828Z,10.47
2019-02-26T23:10:42.351Z,10.23
2019-02-26T23:13:11.317Z,9.60
2019-02-26T23:15:45.147Z,9.00
2019-02-26T23:18:11.608Z,9.10
2019-02-26T23:20:42.503Z,8.63
2019-02-26T23:23:10.923Z,8.97
2019-02-26T23:25:39.623Z,8.90
2019-02-26T23:28:08.707Z,9.27
2019-02-26T23:30:37.556Z,9.03
2019-02-26T23:33:07.137Z,9.13
2019-02-26T23:35:35.963Z,8.17
2019-02-26T23:38:07.988Z,8.47
2019-02-26T23:40:35.656Z,8.77
2019-02-26T23:43:04.719Z,8.53
2019-02-26T23:45:33.980Z,8.20
2019-02-26T23:48:02.949Z,8.10
2019-02-26T23:50:32.446Z,8.60
2019-02-26T23:53:01.762Z,7.40
2019-02-26T23:55:30.602Z,7.53
2019-02-26T23:57:59.336Z,7.97
